Time;durP1;ratioP1;P1;durP2;ratioP2;P2;SDS_P1;SDS_P2;PMS_P1;PMS_P2;Temp;Humidity;BMP_temperature;BMP_pressure;BME280_temperature;BME280_humidity;BME280_pressure;Samples;Min_cycle;Max_cycle;Signal;HPM_P1;HPM_P2
2023/06/29 00:00:39;;;;;;;15.88;13.48;;;;;;;27.13;49.50;98052.19;5091828;28;20048;-68
2023/06/29 00:03:05;;;;;;;20.35;14.02;;;;;;;27.00;49.82;98056.50;5073670;28;20123;-67
2023/06/29 00:05:31;;;;;;;17.38;13.38;;;;;;;27.08;49.45;98057.72;5091244;28;20452;-68
2023/06/29 00:07:59;;;;;;;15.85;13.80;;;;;;;27.04;49.32;98059.44;5091927;28;20051;-68
2023/06/29 00:10:26;;;;;;;19.15;13.25;;;;;;;27.17;49.11;98051.28;5058191;28;20335;-68
2023/06/29 00:12:52;;;;;;;17.20;13.45;;;;;;;27.10;48.93;98056.34;5091097;28;20055;-70
2023/06/29 00:15:18;;;;;;;17.83;14.30;;;;;;;27.00;49.13;98055.72;5086050;28;20055;-70
2023/06/29 00:17:47;;;;;;;20.05;14.70;;;;;;;27.08;49.20;98055.00;5071824;28;20044;-69
2023/06/29 00:20:14;;;;;;;22.88;15.65;;;;;;;27.17;48.91;98050.50;5070621;28;20052;-68
2023/06/29 00:22:40;;;;;;;18.67;15.02;;;;;;;27.14;48.51;98037.47;5071419;28;20040;-68
2023/06/29 00:25:08;;;;;;;21.65;16.50;;;;;;;27.17;48.74;98025.94;5071137;28;20037;-70
2023/06/29 00:27:36;;;;;;;22.33;16.70;;;;;;;27.20;48.82;98042.50;5071444;28;20091;-70
2023/06/29 00:30:02;;;;;;;18.42;14.95;;;;;;;27.13;47.98;98033.09;5071398;28;20044;-69
2023/06/29 00:32:33;;;;;;;17.73;14.93;;;;;;;27.15;48.12;98036.34;5054865;28;20063;-69
2023/06/29 00:34:59;;;;;;;17.75;14.38;;;;;;;27.14;48.43;98035.53;5070337;28;20060;-72
2023/06/29 00:37:25;;;;;;;21.00;13.02;;;;;;;27.15;48.26;98020.81;5053651;28;20040;-71
2023/06/29 00:39:52;;;;;;;19.67;14.60;;;;;;;27.21;47.88;98029.69;5053241;28;20385;-71
2023/06/29 00:42:18;;;;;;;19.30;13.02;;;;;;;27.26;47.72;98037.78;5069085;28;20139;-71
2023/06/29 00:44:46;;;;;;;16.80;14.07;;;;;;;27.26;47.70;98033.13;5071585;28;20048;-69
2023/06/29 00:47:11;;;;;;;20.73;13.75;;;;;;;27.23;47.38;98041.09;5021347;28;20056;-68
2023/06/29 00:49:39;;;;;;;16.63;12.77;;;;;;;27.21;47.11;98041.41;5055152;28;20987;-69
2023/06/29 00:52:06;;;;;;;20.40;11.80;;;;;;;27.29;47.61;98029.78;5074011;28;20040;-69
2023/06/29 00:54:32;;;;;;;19.52;12.60;;;;;;;27.14;46.88;98032.00;5040544;28;20097;-69
2023/06/29 00:56:58;;;;;;;22.75;13.75;;;;;;;27.05;46.89;98031.91;5057760;28;20142;-69
2023/06/29 00:59:25;;;;;;;22.02;14.73;;;;;;;26.34;49.67;98023.38;5074141;28;20045;-68
2023/06/29 01:01:52;;;;;;;22.65;14.88;;;;;;;26.31;50.57;98024.78;5074701;28;20411;-69
2023/06/29 01:04:22;;;;;;;25.05;15.02;;;;;;;26.55;50.21;98026.56;5057201;28;20079;-70
2023/06/29 01:07:03;;;;;;;18.50;13.82;;;;;;;26.86;50.00;98028.47;5074680;28;20632;-69
2023/06/29 01:09:32;;;;;;;21.23;14.68;;;;;;;26.86;49.69;98025.75;5073710;28;20040;-70
2023/06/29 01:11:58;;;;;;;23.65;15.70;;;;;;;26.64;49.29;98020.16;5073750;28;20189;-71
2023/06/29 01:14:26;;;;;;;22.33;14.80;;;;;;;26.57;49.76;98024.38;5040514;28;20048;-70
2023/06/29 01:16:55;;;;;;;19.35;15.55;;;;;;;26.65;49.76;98010.09;5073788;28;20071;-71
2023/06/29 01:19:29;;;;;;;25.48;17.40;;;;;;;26.65;49.90;98012.81;5040370;28;20376;-70
2023/06/29 01:22:09;;;;;;;22.85;19.13;;;;;;;26.67;50.13;98013.31;5039817;28;20040;-70
2023/06/29 01:24:39;;;;;;;24.33;19.15;;;;;;;26.35;51.25;98014.91;5040055;28;20467;-70
2023/06/29 01:27:09;;;;;;;29.55;19.58;;;;;;;26.24;51.50;98013.50;5073687;28;20532;-71
2023/06/29 01:29:35;;;;;;;22.15;17.38;;;;;;;26.08;51.17;97995.78;5040210;28;20169;-69
2023/06/29 01:32:03;;;;;;;23.50;17.83;;;;;;;26.07;51.30;98002.34;5073309;28;20400;-70
2023/06/29 01:34:31;;;;;;;25.48;19.33;;;;;;;26.20;51.61;98004.28;5073210;28;20045;-70
2023/06/29 01:37:03;;;;;;;21.30;15.73;;;;;;;26.14;52.11;98010.94;5072820;28;20044;-70
2023/06/29 01:39:46;;;;;;;20.40;15.95;;;;;;;26.26;51.99;98007.75;5073652;28;20396;-70
2023/06/29 01:42:13;;;;;;;20.40;14.93;;;;;;;26.33;51.17;98006.25;5072755;28;20876;-71
2023/06/29 01:44:38;;;;;;;16.35;13.77;;;;;;;26.09;50.77;98000.13;5056370;28;20437;-71
2023/06/29 01:47:07;;;;;;;18.65;13.07;;;;;;;25.98;51.61;98001.38;5055882;28;20060;-70
2023/06/29 01:49:34;;;;;;;17.73;13.27;;;;;;;26.34;51.45;98013.31;5072816;28;20127;-71
2023/06/29 01:52:00;;;;;;;14.18;11.10;;;;;;;26.18;50.74;98005.72;5071445;28;20464;-68
2023/06/29 01:54:27;;;;;;;14.57;11.35;;;;;;;26.00;50.91;98017.44;5071607;28;20048;-69
2023/06/29 01:56:54;;;;;;;13.35;10.07;;;;;;;25.96;51.06;98021.81;5072817;28;20055;-69
2023/06/29 01:59:19;;;;;;;13.02;9.07;;;;;;;26.14;50.47;98013.66;5055088;28;20040;-70
2023/06/29 02:01:46;;;;;;;11.07;9.13;;;;;;;26.07;49.42;98005.06;5037717;28;20413;-70
2023/06/29 02:04:13;;;;;;;12.23;9.15;;;;;;;26.12;49.59;97996.81;5071748;28;20040;-69
2023/06/29 02:06:39;;;;;;;8.85;7.43;;;;;;;25.81;49.52;98003.81;5073799;28;20068;-71
2023/06/29 02:09:05;;;;;;;10.55;7.75;;;;;;;25.66;49.66;98008.69;5024055;28;20091;-69
2023/06/29 02:11:30;;;;;;;6.97;6.20;;;;;;;25.50;49.60;98021.69;5055975;28;20040;-69
2023/06/29 02:13:56;;;;;;;9.45;6.97;;;;;;;25.61;49.91;98020.44;5056148;28;20048;-70
2023/06/29 02:16:22;;;;;;;10.13;6.10;;;;;;;25.49;49.56;98011.09;5073105;28;20036;-69
2023/06/29 02:18:48;;;;;;;7.95;5.43;;;;;;;25.39;50.46;98032.97;5039490;28;20495;-69
2023/06/29 02:21:14;;;;;;;7.22;5.45;;;;;;;24.99;50.39;98023.38;5072386;28;20106;-70
2023/06/29 02:23:40;;;;;;;8.85;7.15;;;;;;;24.86;51.62;98024.09;5073345;28;20040;-69
2023/06/29 02:26:06;;;;;;;15.23;7.50;;;;;;;25.13;51.65;98037.88;5073308;28;20040;-69
2023/06/29 02:28:36;;;;;;;8.75;7.10;;;;;;;24.78;52.62;98024.72;5072293;28;20045;-69
2023/06/29 02:31:02;;;;;;;7.93;6.00;;;;;;;24.67;52.31;98029.44;5055839;28;20392;-70
2023/06/29 02:33:29;;;;;;;9.27;6.28;;;;;;;24.72;52.09;98040.22;5022902;28;20389;-69
2023/06/29 02:35:55;;;;;;;7.47;5.68;;;;;;;24.72;51.90;98036.72;5055587;28;20040;-69
2023/06/29 02:38:21;;;;;;;5.95;5.05;;;;;;;24.74;51.61;98051.63;5072354;28;20040;-69
2023/06/29 02:40:46;;;;;;;6.03;5.38;;;;;;;24.84;51.02;98054.25;5039019;28;20051;-69
2023/06/29 02:43:16;;;;;;;7.32;5.57;;;;;;;24.79;51.70;98064.34;5055589;28;20479;-69
2023/06/29 02:45:42;;;;;;;8.30;5.68;;;;;;;24.57;51.79;98055.88;5071957;28;20056;-69
2023/06/29 02:48:10;;;;;;;7.15;5.78;;;;;;;24.41;52.74;98067.94;5071710;28;20435;-70
2023/06/29 02:50:37;;;;;;;9.52;6.00;;;;;;;24.41;52.51;98079.63;5072781;28;20113;-71
2023/06/29 02:53:03;;;;;;;11.23;6.45;;;;;;;24.24;53.09;98068.34;5076173;28;20040;-70
2023/06/29 02:55:30;;;;;;;10.32;6.82;;;;;;;24.11;53.96;98065.47;5039265;28;20044;-71
2023/06/29 02:57:58;;;;;;;11.43;6.80;;;;;;;24.18;53.82;98076.81;5039215;28;20032;-70
2023/06/29 03:00:25;;;;;;;9.18;6.47;;;;;;;24.13;53.76;98074.94;5055852;28;20049;-68
2023/06/29 03:02:51;;;;;;;10.32;7.25;;;;;;;24.18;53.75;98084.94;5055256;28;20040;-69
2023/06/29 03:05:17;;;;;;;8.20;6.13;;;;;;;24.23;52.84;98068.63;5071905;28;20146;-69
2023/06/29 03:07:43;;;;;;;7.70;6.10;;;;;;;24.16;53.07;98077.09;5071613;28;20464;-68
2023/06/29 03:10:09;;;;;;;6.93;5.80;;;;;;;24.16;52.58;98089.84;5038716;28;20051;-68
2023/06/29 03:12:35;;;;;;;10.00;5.50;;;;;;;24.26;53.05;98068.84;5037507;28;20186;-68
2023/06/29 03:15:01;;;;;;;9.20;5.60;;;;;;;24.38;52.36;98076.66;5071341;28;20071;-68
2023/06/29 03:17:33;;;;;;;11.00;6.90;;;;;;;24.36;52.34;98081.53;5065979;28;20036;-68
2023/06/29 03:19:58;;;;;;;7.88;6.95;;;;;;;24.22;52.70;98064.28;5047049;28;20396;-69
2023/06/29 03:22:27;;;;;;;12.48;7.05;;;;;;;23.91;53.41;98090.78;5065550;28;20425;-67
2023/06/29 03:24:53;;;;;;;7.90;6.63;;;;;;;23.85;54.35;98080.28;5051545;28;20052;-68
2023/06/29 03:27:19;;;;;;;8.02;6.45;;;;;;;24.06;53.45;98087.22;5056590;28;20039;-68
2023/06/29 03:29:49;;;;;;;9.48;6.85;;;;;;;24.18;52.81;98084.94;5036054;28;20044;-68
2023/06/29 03:32:15;;;;;;;8.40;6.72;;;;;;;24.33;52.08;98088.34;5071835;28;20128;-68
2023/06/29 03:34:41;;;;;;;7.22;6.30;;;;;;;24.23;52.08;98091.13;5048655;28;20040;-69
2023/06/29 03:37:07;;;;;;;12.30;6.82;;;;;;;24.27;52.42;98080.53;5063589;28;20063;-70
2023/06/29 03:39:33;;;;;;;17.00;7.53;;;;;;;24.39;51.59;98080.97;5039436;28;20040;-70
2023/06/29 03:41:59;;;;;;;10.95;7.65;;;;;;;24.46;51.46;98087.69;5029530;28;20174;-73
2023/06/29 03:44:25;;;;;;;7.15;5.50;;;;;;;24.38;51.23;98090.22;5048238;28;20047;-69
2023/06/29 03:46:51;;;;;;;12.88;6.53;;;;;;;24.70;50.99;98093.22;5063602;28;20081;-68
2023/06/29 03:49:17;;;;;;;9.07;5.60;;;;;;;24.21;51.24;98097.94;5031741;28;20036;-69
2023/06/29 03:51:43;;;;;;;5.80;4.65;;;;;;;24.27;50.94;98091.38;5035116;28;20408;-71
2023/06/29 03:54:09;;;;;;;6.97;5.60;;;;;;;24.42;51.54;98085.84;5038565;28;20044;-71
2023/06/29 03:56:35;;;;;;;9.15;6.25;;;;;;;24.40;51.72;98077.97;5030727;28;20047;-69
2023/06/29 03:59:03;;;;;;;8.88;6.15;;;;;;;24.48;52.56;98079.25;5052273;28;20075;-70
2023/06/29 04:01:29;;;;;;;8.48;7.00;;;;;;;24.18;52.63;98079.53;5067883;28;20066;-76
2023/06/29 04:03:55;;;;;;;8.82;6.85;;;;;;;24.39;52.52;98081.78;5066053;28;20074;-72
2023/06/29 04:06:21;;;;;;;8.95;6.45;;;;;;;24.50;51.92;98087.94;5064897;28;20032;-70
2023/06/29 04:08:48;;;;;;;14.48;7.30;;;;;;;24.55;52.22;98077.88;5068098;28;20052;-70
2023/06/29 04:11:15;;;;;;;12.25;7.20;;;;;;;24.80;52.14;98071.41;5022473;28;20053;-71
2023/06/29 04:13:41;;;;;;;9.35;6.63;;;;;;;24.75;51.94;98079.59;5007691;28;20389;-70
2023/06/29 04:16:07;;;;;;;11.52;6.78;;;;;;;25.00;50.85;98073.09;5016726;28;20060;-70
2023/06/29 04:18:36;;;;;;;8.27;5.40;;;;;;;25.16;50.01;98061.75;5018922;28;20400;-72
2023/06/29 04:21:02;;;;;;;18.00;7.68;;;;;;;25.11;49.29;98083.56;4983233;28;20049;-71
2023/06/29 04:23:29;;;;;;;5.15;4.57;;;;;;;25.35;48.80;98078.97;4951069;28;20061;-70
2023/06/29 04:25:55;;;;;;;10.70;5.57;;;;;;;25.40;48.32;98084.31;4927373;28;20054;-70
2023/06/29 04:28:21;;;;;;;14.63;6.35;;;;;;;25.64;47.57;98092.44;4941651;28;20050;-71
2023/06/29 04:30:47;;;;;;;5.85;4.47;;;;;;;25.45;47.49;98089.69;4924284;29;20067;-71
2023/06/29 04:33:15;;;;;;;5.25;4.75;;;;;;;25.53;47.23;98090.97;4936473;29;20055;-69
2023/06/29 04:35:42;;;;;;;8.93;5.15;;;;;;;25.60;47.47;98097.66;4920958;29;20055;-70
2023/06/29 04:38:10;;;;;;;7.82;4.88;;;;;;;25.53;47.49;98090.97;4937241;29;20042;-69
2023/06/29 04:40:37;;;;;;;7.53;5.40;;;;;;;25.75;47.50;98100.19;4937597;29;20055;-68
2023/06/29 04:43:03;;;;;;;6.45;4.82;;;;;;;25.78;46.94;98094.16;4938455;29;20055;-68
2023/06/29 04:45:31;;;;;;;6.65;4.50;;;;;;;26.10;45.16;98094.28;4938498;29;20057;-70
2023/06/29 04:48:00;;;;;;;6.82;4.47;;;;;;;26.41;44.71;98092.69;4944030;28;20065;-70
2023/06/29 04:50:35;;;;;;;6.38;4.68;;;;;;;26.86;43.40;98101.22;4942618;28;20395;-70
2023/06/29 04:53:09;;;;;;;8.30;4.93;;;;;;;26.96;42.71;98104.56;4980511;28;20188;-75
2023/06/29 04:55:39;;;;;;;6.00;5.00;;;;;;;27.33;41.83;98093.53;4970406;28;20037;-70
2023/06/29 04:58:05;;;;;;;7.75;4.80;;;;;;;27.52;41.25;98088.75;5022908;28;20071;-72
2023/06/29 05:00:32;;;;;;;6.25;4.70;;;;;;;27.86;40.46;98085.59;5028174;28;20048;-72
2023/06/29 05:03:00;;;;;;;4.25;3.85;;;;;;;28.05;39.51;98083.53;5041594;28;20051;-72
2023/06/29 05:05:26;;;;;;;6.70;4.30;;;;;;;28.49;37.95;98080.88;5040320;28;20110;-72
2023/06/29 05:07:52;;;;;;;5.05;4.45;;;;;;;28.64;37.05;98083.22;5073524;28;20291;-71
2023/06/29 05:10:18;;;;;;;6.03;4.68;;;;;;;28.93;37.00;98099.13;5025076;28;20504;-72
2023/06/29 05:12:46;;;;;;;8.07;5.07;;;;;;;28.70;36.41;98090.16;5039669;28;20032;-68
2023/06/29 05:15:12;;;;;;;5.60;4.68;;;;;;;28.82;36.66;98087.66;5039294;28;20402;-66
2023/06/29 05:17:38;;;;;;;7.60;5.45;;;;;;;28.88;35.95;98101.97;5072297;28;20048;-65
2023/06/29 05:20:08;;;;;;;10.80;5.43;;;;;;;28.58;37.22;98087.19;5056036;28;20041;-66
2023/06/29 05:22:34;;;;;;;8.07;5.15;;;;;;;28.84;37.05;98095.53;5055649;28;20072;-66
2023/06/29 05:25:00;;;;;;;8.32;4.55;;;;;;;28.80;36.28;98091.81;5036652;28;20518;-66
2023/06/29 05:27:26;;;;;;;7.72;5.15;;;;;;;28.72;36.26;98087.09;5039506;28;20046;-67
2023/06/29 05:29:52;;;;;;;6.38;4.78;;;;;;;29.24;36.04;98089.00;5039783;28;20231;-66
2023/06/29 05:32:19;;;;;;;6.18;4.70;;;;;;;29.25;35.36;98102.34;5072937;28;20041;-67
2023/06/29 05:34:45;;;;;;;7.80;4.95;;;;;;;28.92;35.86;98102.97;5056772;28;20122;-68
2023/06/29 05:37:11;;;;;;;8.05;5.07;;;;;;;28.88;35.65;98107.44;5039990;28;20053;-72
2023/06/29 05:39:37;;;;;;;8.45;5.03;;;;;;;28.84;35.35;98106.47;5073929;28;20041;-72
2023/06/29 05:42:03;;;;;;;8.32;5.45;;;;;;;28.99;35.63;98106.88;5074505;28;20040;-72
2023/06/29 05:44:29;;;;;;;10.75;5.05;;;;;;;29.21;35.38;98108.78;5073556;28;20515;-72
2023/06/29 05:46:54;;;;;;;7.72;4.53;;;;;;;29.46;33.69;98121.75;5082174;28;20135;-71
2023/06/29 05:49:21;;;;;;;9.93;5.00;;;;;;;29.40;34.24;98115.59;5046794;28;20056;-72
2023/06/29 05:51:47;;;;;;;9.70;4.72;;;;;;;29.24;34.16;98108.16;5041363;28;20165;-72
2023/06/29 05:54:13;;;;;;;5.35;4.30;;;;;;;29.17;33.71;98094.09;5057461;28;20520;-73
2023/06/29 05:56:39;;;;;;;4.93;4.28;;;;;;;29.26;33.87;98103.19;5073719;28;20063;-72
2023/06/29 05:59:06;;;;;;;5.80;4.43;;;;;;;29.52;33.76;98084.91;5057599;28;20139;-73
2023/06/29 06:01:32;;;;;;;5.05;4.45;;;;;;;29.38;34.00;98104.16;5074375;28;20113;-72
2023/06/29 06:03:58;;;;;;;9.77;4.32;;;;;;;29.41;33.92;98098.09;5057094;28;20048;-71
2023/06/29 06:06:24;;;;;;;6.55;4.30;;;;;;;29.53;32.85;98106.50;5057124;28;20474;-71
2023/06/29 06:08:50;;;;;;;6.13;4.50;;;;;;;29.94;33.17;98100.63;5073733;28;20077;-71
2023/06/29 06:11:15;;;;;;;5.22;4.20;;;;;;;30.21;31.92;98103.13;5073618;28;20395;-71
2023/06/29 06:13:41;;;;;;;9.18;4.43;;;;;;;30.23;31.70;98100.84;5073366;28;20066;-70
2023/06/29 06:16:07;;;;;;;6.75;4.80;;;;;;;30.23;31.56;98102.78;5040875;28;20047;-69
2023/06/29 06:18:33;;;;;;;6.60;4.30;;;;;;;30.28;31.63;98113.56;5055063;28;20044;-69
2023/06/29 06:20:58;;;;;;;13.88;4.40;;;;;;;30.19;31.64;98102.59;5072435;28;20040;-72
2023/06/29 06:23:26;;;;;;;6.53;3.83;;;;;;;30.56;31.31;98101.16;5071490;28;20143;-71
2023/06/29 06:25:52;;;;;;;8.07;3.92;;;;;;;30.90;30.88;98095.63;5071404;28;20044;-71
2023/06/29 06:28:18;;;;;;;4.70;4.20;;;;;;;30.93;30.38;98111.44;5021625;28;20071;-72
2023/06/29 06:30:44;;;;;;;9.93;4.80;;;;;;;30.93;30.07;98103.22;5055198;28;20071;-70
2023/06/29 06:33:10;;;;;;;5.55;4.18;;;;;;;31.20;30.04;98112.97;5071763;28;20040;-70
2023/06/29 06:35:36;;;;;;;6.07;4.00;;;;;;;30.85;29.83;98112.25;5070781;28;20048;-70
2023/06/29 06:38:02;;;;;;;6.82;4.45;;;;;;;30.41;30.55;98102.47;5054867;28;20042;-71
2023/06/29 06:40:28;;;;;;;7.93;4.50;;;;;;;30.48;30.90;98093.75;5054629;28;20036;-73
2023/06/29 06:42:54;;;;;;;5.72;4.47;;;;;;;30.47;30.75;98090.22;5072036;28;20127;-73
2023/06/29 06:45:22;;;;;;;5.80;4.43;;;;;;;30.08;31.03;98097.75;5054257;28;20044;-72
2023/06/29 06:47:52;;;;;;;6.10;4.07;;;;;;;29.77;31.61;98092.38;5038219;28;20545;-74
2023/06/29 06:50:20;;;;;;;6.43;4.10;;;;;;;30.08;30.98;98098.56;5071225;28;20388;-74
2023/06/29 06:52:50;;;;;;;12.00;4.22;;;;;;;30.26;30.81;98102.16;5071510;28;20058;-74
2023/06/29 06:55:16;;;;;;;9.18;4.53;;;;;;;29.79;30.76;98106.56;5071566;28;20454;-74
2023/06/29 06:57:42;;;;;;;5.75;4.10;;;;;;;30.16;30.67;98113.38;5071017;28;20040;-73
2023/06/29 07:00:12;;;;;;;5.05;4.22;;;;;;;30.47;30.60;98106.66;5070915;28;20048;-74
2023/06/29 07:02:39;;;;;;;7.05;4.63;;;;;;;30.83;30.34;98106.31;5054637;28;20044;-75
2023/06/29 07:05:06;;;;;;;8.07;4.80;;;;;;;30.78;30.82;98111.97;5070861;28;20368;-74
2023/06/29 07:07:32;;;;;;;6.07;4.20;;;;;;;31.17;30.56;98117.16;5054503;28;20388;-73
2023/06/29 07:09:58;;;;;;;9.43;5.25;;;;;;;30.92;30.50;98113.34;5053589;28;20044;-74
2023/06/29 07:12:24;;;;;;;8.55;4.80;;;;;;;31.12;29.90;98117.34;5053250;28;20559;-74
2023/06/29 07:14:50;;;;;;;9.50;4.78;;;;;;;31.03;30.22;98098.16;5071047;28;20048;-74
2023/06/29 07:17:17;;;;;;;8.80;4.40;;;;;;;31.63;29.89;98099.88;5071542;28;20053;-77
2023/06/29 07:19:43;;;;;;;9.50;4.07;;;;;;;32.35;28.51;98106.69;5072517;28;20044;-75
2023/06/29 07:22:09;;;;;;;6.03;4.40;;;;;;;33.01;27.48;98090.22;5071720;28;20609;-75
2023/06/29 07:24:35;;;;;;;6.68;3.70;;;;;;;33.01;26.78;98103.97;5053908;28;20055;-72
2023/06/29 07:27:01;;;;;;;5.97;3.83;;;;;;;33.03;27.01;98090.69;5070780;28;20036;-75
2023/06/29 07:29:27;;;;;;;5.93;4.03;;;;;;;33.77;26.22;98089.25;5071627;28;20388;-77
2023/06/29 07:31:53;;;;;;;4.60;3.70;;;;;;;34.15;25.09;98084.13;5040043;28;20464;-75
2023/06/29 07:34:23;;;;;;;9.25;3.38;;;;;;;34.96;24.18;98085.69;5072739;28;20043;-74
2023/06/29 07:36:52;;;;;;;5.28;3.03;;;;;;;36.15;22.69;98079.56;5057204;28;20048;-75
2023/06/29 07:39:18;;;;;;;8.15;3.28;;;;;;;37.45;21.50;98084.88;5023023;28;20051;-75
2023/06/29 07:41:44;;;;;;;7.28;2.80;;;;;;;38.66;20.14;98084.25;5055806;28;20546;-80
2023/06/29 07:44:09;;;;;;;5.22;2.92;;;;;;;39.41;18.37;98090.22;5072557;28;20147;-77
2023/06/29 07:46:37;;;;;;;4.00;2.80;;;;;;;37.59;19.83;98094.22;5062110;28;20177;-73
2023/06/29 07:49:03;;;;;;;6.47;2.60;;;;;;;35.81;21.59;98081.13;5089269;28;20047;-76
2023/06/29 07:51:32;;;;;;;6.35;2.63;;;;;;;35.57;22.49;98067.53;5072176;28;20465;-78
2023/06/29 07:54:03;;;;;;;5.32;2.47;;;;;;;38.51;19.67;98085.25;5072796;28;20110;-74
2023/06/29 07:56:33;;;;;;;4.53;2.30;;;;;;;41.57;16.76;98080.50;5089429;28;20044;-75
2023/06/29 07:58:59;;;;;;;6.73;2.40;;;;;;;44.40;14.25;98084.81;5089216;28;20059;-80
2023/06/29 08:01:25;;;;;;;6.15;2.30;;;;;;;46.65;12.44;98083.16;5073274;28;20749;-76
2023/06/29 08:03:50;;;;;;;3.80;2.22;;;;;;;47.71;11.47;98067.41;5071375;28;20092;-78
2023/06/29 08:06:17;;;;;;;4.45;2.10;;;;;;;49.32;10.48;98079.63;5071226;28;20133;-74
2023/06/29 08:08:42;;;;;;;4.32;1.95;;;;;;;47.58;10.73;98065.31;5069765;28;20445;-74
2023/06/29 08:11:12;;;;;;;2.92;1.85;;;;;;;46.53;11.73;98070.56;5071616;28;20051;-74
2023/06/29 08:13:39;;;;;;;3.97;1.92;;;;;;;44.57;13.00;98071.81;5070148;28;20147;-75
2023/06/29 08:16:05;;;;;;;3.38;1.90;;;;;;;41.90;14.88;98050.56;5070900;28;20044;-74
2023/06/29 08:18:31;;;;;;;4.93;1.90;;;;;;;41.94;15.46;98048.56;5069505;28;20353;-75
2023/06/29 08:20:57;;;;;;;3.13;1.98;;;;;;;42.86;14.94;98039.44;5070697;28;20036;-78
2023/06/29 08:23:23;;;;;;;5.32;2.25;;;;;;;43.06;14.08;98050.88;5069516;28;20498;-78
2023/06/29 08:25:49;;;;;;;8.50;2.55;;;;;;;44.44;12.85;98063.16;5053194;28;20072;-79
2023/06/29 08:28:15;;;;;;;6.38;1.60;;;;;;;46.23;11.99;98056.72;5086431;28;20060;-78
2023/06/29 08:30:41;;;;;;;3.05;1.83;;;;;;;45.17;11.96;98057.78;5069603;28;20052;-78
2023/06/29 08:33:07;;;;;;;5.40;1.52;;;;;;;45.32;11.84;98053.50;5070428;28;20048;-75
2023/06/29 08:35:33;;;;;;;7.93;1.92;;;;;;;44.00;12.50;98052.06;5070240;28;20048;-75
2023/06/29 08:37:59;;;;;;;3.42;1.67;;;;;;;43.61;12.62;98053.66;5069722;28;20435;-78
2023/06/29 08:40:25;;;;;;;3.42;1.50;;;;;;;43.36;13.05;98033.50;5070563;28;20082;-77
2023/06/29 08:42:53;;;;;;;5.72;1.73;;;;;;;42.77;13.53;98038.28;5072231;28;20495;-78
2023/06/29 08:45:19;;;;;;;6.57;1.88;;;;;;;43.27;13.27;98045.16;5088981;28;20138;-75
2023/06/29 08:47:49;;;;;;;7.88;1.90;;;;;;;41.21;15.20;98037.06;5089533;28;20142;-76
2023/06/29 08:50:15;;;;;;;5.28;1.90;;;;;;;40.01;15.97;98021.19;5091271;28;20189;-74
2023/06/29 08:52:40;;;;;;;5.20;2.15;;;;;;;39.42;16.62;98030.72;5092863;28;20142;-74
2023/06/29 08:55:07;;;;;;;8.68;2.03;;;;;;;41.52;15.32;98041.84;5076717;28;20051;-81
2023/06/29 08:57:34;;;;;;;6.00;2.15;;;;;;;42.24;14.48;98032.16;5093105;28;20036;-78
2023/06/29 09:00:04;;;;;;;4.20;1.60;;;;;;;41.53;14.55;98037.09;5092255;28;20040;-78
2023/06/29 09:02:35;;;;;;;5.50;2.00;;;;;;;39.17;17.08;98018.56;5108985;28;20066;-79
2023/06/29 09:05:02;;;;;;;2.08;1.77;;;;;;;39.17;17.00;98012.22;5091816;28;20051;-78
2023/06/29 09:07:31;;;;;;;2.95;2.20;;;;;;;38.92;17.40;98028.63;5092344;28;20044;-78
2023/06/29 09:09:58;;;;;;;6.95;1.90;;;;;;;40.86;15.94;98009.16;5109466;28;20090;-75
2023/06/29 09:12:27;;;;;;;6.28;2.40;;;;;;;43.29;13.78;98020.34;5111495;28;20084;-75
2023/06/29 09:14:53;;;;;;;4.95;1.65;;;;;;;44.46;12.53;98043.94;5061583;28;20475;-74
2023/06/29 09:17:21;;;;;;;6.13;2.22;;;;;;;43.35;12.90;98024.28;5086286;28;20095;-75
2023/06/29 09:19:54;;;;;;;5.03;2.10;;;;;;;42.42;14.22;98013.34;5086929;28;20046;-76
2023/06/29 09:22:21;;;;;;;7.95;2.15;;;;;;;43.34;13.64;98014.34;5070685;28;20052;-74
2023/06/29 09:24:48;;;;;;;3.42;1.83;;;;;;;43.38;12.77;98003.91;5070246;28;20040;-75
2023/06/29 09:27:14;;;;;;;7.25;2.17;;;;;;;44.04;12.83;97994.03;5035719;28;20049;-73
2023/06/29 09:29:50;;;;;;;5.38;2.20;;;;;;;45.57;11.91;97995.00;5051963;28;20056;-74
2023/06/29 09:32:16;;;;;;;3.10;2.05;;;;;;;44.29;12.77;97986.16;5069250;28;20042;-75
2023/06/29 09:34:46;;;;;;;2.08;1.88;;;;;;;44.55;12.32;97974.19;5069232;28;20350;-75
2023/06/29 09:37:16;;;;;;;5.40;2.60;;;;;;;43.90;12.58;97993.44;5068988;28;20097;-73
2023/06/29 09:40:05;;;;;;;4.90;2.38;;;;;;;44.46;12.12;97984.31;5070572;28;20153;-73
2023/06/29 09:42:36;;;;;;;3.08;2.08;;;;;;;46.25;10.77;97989.69;5069468;28;20051;-74
2023/06/29 09:45:07;;;;;;;6.63;2.63;;;;;;;46.22;11.02;97968.09;5069399;28;20044;-74
2023/06/29 09:47:34;;;;;;;3.67;2.90;;;;;;;47.00;10.54;97953.03;5087141;28;20059;-74
2023/06/29 09:50:03;;;;;;;4.07;2.80;;;;;;;49.41;9.31;97957.59;5089517;28;20069;-75
2023/06/29 09:52:44;;;;;;;3.85;2.67;;;;;;;50.14;8.06;97946.44;5090806;28;20044;-76
2023/06/29 09:55:11;;;;;;;3.25;2.95;;;;;;;48.67;9.55;97948.78;5089316;28;20096;-74
2023/06/29 09:57:40;;;;;;;8.40;3.90;;;;;;;44.97;11.56;97930.72;5073041;28;20040;-72
2023/06/29 10:00:11;;;;;;;7.53;3.60;;;;;;;45.22;11.03;97966.78;5088837;28;20074;-77
2023/06/29 10:02:42;;;;;;;6.05;3.40;;;;;;;43.42;12.45;97926.38;5073832;28;20044;-74
2023/06/29 10:05:10;;;;;;;10.25;3.78;;;;;;;42.16;13.60;97956.03;5090821;28;20032;-74
2023/06/29 10:07:37;;;;;;;5.90;3.67;;;;;;;43.01;12.85;97926.34;5073123;28;20044;-76
2023/06/29 10:10:06;;;;;;;15.70;3.88;;;;;;;41.45;13.55;97913.63;5072464;28;20051;-75
2023/06/29 10:12:33;;;;;;;4.33;3.47;;;;;;;41.33;14.10;97936.34;5088213;28;20122;-75
2023/06/29 10:15:08;;;;;;;8.65;3.58;;;;;;;39.79;15.47;97925.72;5072741;28;20043;-75
2023/06/29 10:17:49;;;;;;;6.78;3.47;;;;;;;39.00;16.30;97908.13;5072929;28;20036;-79
2023/06/29 10:20:16;;;;;;;9.05;3.33;;;;;;;38.10;17.02;97906.03;5072969;28;20051;-72
2023/06/29 10:22:43;;;;;;;5.40;3.47;;;;;;;36.83;18.28;97887.66;5089965;28;20036;-78
2023/06/29 10:25:13;;;;;;;4.55;2.58;;;;;;;36.98;18.27;97897.00;5089617;28;20036;-78
2023/06/29 10:27:39;;;;;;;3.55;2.83;;;;;;;36.12;19.33;97892.28;5089712;28;20134;-73
2023/06/29 10:30:06;;;;;;;10.32;2.92;;;;;;;35.12;20.30;97898.84;5089326;28;20116;-72
2023/06/29 10:32:40;;;;;;;6.78;2.97;;;;;;;34.90;20.80;97891.22;5088773;28;20138;-72
2023/06/29 10:35:09;;;;;;;5.28;2.60;;;;;;;34.62;21.20;97916.13;5089972;28;20145;-74
2023/06/29 10:37:40;;;;;;;4.32;2.80;;;;;;;33.25;22.95;97909.44;5090088;28;20054;-78
2023/06/29 10:40:17;;;;;;;5.63;2.35;;;;;;;32.32;24.65;97903.97;5089533;28;20086;-70
2023/06/29 10:42:43;;;;;;;7.78;2.17;;;;;;;31.66;25.72;97909.81;5072168;28;20058;-72
2023/06/29 10:45:09;;;;;;;3.00;2.00;;;;;;;31.35;26.00;97887.47;5089296;28;20130;-75
2023/06/29 10:47:39;;;;;;;5.03;2.03;;;;;;;32.01;25.30;97880.91;5089153;28;20151;-73
2023/06/29 10:50:08;;;;;;;;;;;;;;;32.02;25.76;97901.72;5093534;28;20051;-76
2023/06/29 10:52:34;;;;;;;4.07;1.85;;;;;;;31.45;26.27;97896.09;5073566;28;19920;-78
2023/06/29 10:55:17;;;;;;;5.35;2.00;;;;;;;31.05;28.04;97914.09;5071916;28;20048;-74
2023/06/29 10:57:52;;;;;;;4.97;2.05;;;;;;;30.67;28.98;97902.34;5088638;28;20052;-73
2023/06/29 11:00:19;;;;;;;7.13;2.30;;;;;;;30.88;29.02;97905.97;5088280;28;20044;-76
2023/06/29 11:02:48;;;;;;;7.05;2.00;;;;;;;30.61;29.16;97920.94;5089859;28;20529;-73
2023/06/29 11:05:19;;;;;;;5.90;2.10;;;;;;;30.53;29.58;97912.72;5056278;28;20605;-71
2023/06/29 11:07:47;;;;;;;7.65;2.70;;;;;;;30.24;30.08;97931.84;5055171;28;20040;-73
2023/06/29 11:10:13;;;;;;;7.82;2.45;;;;;;;30.38;30.74;97922.31;5088599;28;20036;-74
2023/06/29 11:12:40;;;;;;;7.35;2.30;;;;;;;30.17;31.30;97934.25;5088076;28;20544;-76
2023/06/29 11:15:12;;;;;;;6.38;2.50;;;;;;;30.61;32.82;97920.94;5089074;28;20531;-75
2023/06/29 11:17:45;;;;;;;5.97;2.85;;;;;;;30.45;33.82;97928.06;5089009;28;20051;-72
2023/06/29 11:20:13;;;;;;;8.05;3.65;;;;;;;29.59;36.80;97964.84;5088404;28;20036;-72
2023/06/29 11:22:41;;;;;;;15.55;4.10;;;;;;;27.92;42.37;97994.31;5087794;28;20476;-71
2023/06/29 11:25:10;;;;;;;10.52;3.65;;;;;;;25.18;55.69;98026.97;5088249;28;20040;-76
2023/06/29 11:27:36;;;;;;;13.68;3.08;;;;;;;23.66;100.00;97996.09;5070970;28;20044;-75
2023/06/29 11:30:07;;;;;;;58.80;3.70;;;;;;;22.62;100.00;98007.06;5071186;28;20040;-76